x

Edisto - 41 Nm Southeast Of Charleston, Sc (41004) Wave Buoy

3:50am - Mon 25th May 2015 All times are EDT. -4 hours from GMT.

  • Sig Wave height 4.9ft
  • Swell Direction
  • Peak Period 7s
  • Average Period 5s
  • Wind
    16mph, 18mph gusts
  • Sea Temp 75°f
  • Air Temp 74°f
  • Sea Pressure 1024.6mb
  • Edisto - 41 Nm Southeast Of Charleston, Sc
  • Edisto - 41 Nm Southeast Of Charleston, Sc

More Historic Weather Station data

Upgrade to MSW Pro to gain access to the past 30 days of data for over 8000 Wavebouys and Weather Stations around the globe.

Join Pro

Comparision Forecast

View Surf forecast
   
Mon 05/25 3:50am 5ft 7s 5s 16 18 mph 1024.6mb 75f 74f
2:50am 5ft 7s 5s 16 18 mph 1024.9mb 75f 74f
1:50am 5.5ft 7s 5s 16 22 mph 1025.1mb 75f 74f
12:50am 5ft 7s 5s 18 22 mph 1025.3mb 75f 74f
Sun 05/24 11:50pm 4.5ft 8s 5s 18 22 mph 1025.8mb 76f 75f
10:50pm 4.5ft 8s 5s 18 20 mph 1026mb 75f 75f
9:50pm 5.5ft 8s 5s 16 20 mph 1026mb 75f 75f
8:50pm 5.5ft 7s 5s 20 22 mph 1025.5mb 75f 75f
7:50pm 5.5ft 7s 5s 20 25 mph 1025.4mb 75f 76f
6:50pm 5ft 7s 5s 20 22 mph 1025.4mb 75f 76f
5:50pm 5ft 5s 5s 18 25 mph 1025.5mb 75f 76f
4:50pm 5ft 7s 5s 18 22 mph 1025.6mb 75f 76f
3:50pm 4.5ft 8s 5s 16 18 mph 1026.2mb 75f 76f
2:50pm 4.5ft 7s 5s 18 20 mph 1026.6mb 75f 76f
1:50pm 4.5ft 8s 5s 18 20 mph 1026.9mb 75f 76f
12:50pm 4.5ft 7s 5s 18 20 mph 1027.4mb 75f 75f
11:50am 4.5ft 8s 5s 18 22 mph 1027.6mb 75f 75f
10:50am 4.5ft 7s 5s 18 22 mph 1027.5mb 75f 75f
9:50am 4.5ft 5s 5s 16 20 mph 1027.4mb 75f 75f
8:50am 4.5ft 7s 5s 18 20 mph 1027.3mb 75f 75f
7:50am 4.5ft 7s 5s 18 20 mph 1027mb 75f 75f
6:50am 4.5ft 5s 5s 16 20 mph 1026.9mb 75f 74f
5:50am 5ft 6s 5s 16 20 mph 1026.4mb 75f 74f
4:50am 5ft 7s 5s 18 20 mph 1026mb 75f 74f
3:50am 5ft 6s 5s 18 22 mph 1025.6mb 75f 74f
2:50am 5ft 6s 5s 18 22 mph 1025.8mb 75f 74f
1:50am 5ft 6s 5s 20 25 mph 1025.9mb 75f 75f
12:50am 5ft 6s 5s 20 22 mph 1026.6mb 75f 75f
Sat 05/23 11:50pm 4.5ft 6s 5s 20 22 mph 1027mb 75f 75f
10:50pm 4.5ft 5s 5s 20 22 mph 1027mb 75f 75f
9:50pm 4.5ft 7s 5s 18 22 mph 1026.6mb 76f 75f
8:50pm 4.5ft 6s 5s 20 22 mph 1026.4mb 76f 75f
7:50pm 4.5ft 6s 5s 18 22 mph 1026.6mb 76f 75f
6:50pm 4.5ft 6s 5s 18 22 mph 1026.6mb 76f 76f
5:50pm 4.5ft 5s 5s 20 22 mph 1026.6mb 76f 75f
4:50pm 4.5ft 5s 5s 18 22 mph 1026.9mb 76f 75f
3:50pm 4ft 5s 4s 18 22 mph 1026.9mb 75f 75f
2:50pm 3.5ft 6s 5s 16 20 mph 1027.2mb 75f 75f
1:50pm 4ft 5s 4s 18 20 mph 1027.3mb 75f 74f
12:50pm 4ft 5s 4s 18 22 mph 1027.6mb 75f 73f
11:50am 4ft 5s 4s 18 22 mph 1027.7mb 75f 73f
10:50am 4ft 5s 4s 20 25 mph 1027.2mb 75f 73f
9:50am 4ft 5s 4s 20 22 mph 1027mb 75f 73f
8:50am 4ft 5s 4s 18 25 mph 1026.7mb 75f 73f
7:50am 4ft 4s 4s 20 25 mph 1025.9mb 75f 72f
6:50am 3.5ft 4s 4s 20 25 mph 1025.2mb 75f 72f
5:50am 3.5ft 4s 4s 18 22 mph 1024.5mb 75f 72f
4:50am 3.5ft 4s 4s 18 22 mph 1023.8mb 75f 72f
3:50am 3.5ft 6s 4s 18 22 mph 1023.4mb 75f 72f
2:50am 3.5ft 6s 5s 18 20 mph 1023.4mb 75f 73f
1:50am 3.5ft 5s 5s 16 20 mph 1023.5mb 75f 73f
12:50am 3.5ft 6s 5s 16 18 mph 1023.8mb 75f 73f
Fri 05/22 11:50pm 3.5ft 6s 5s 13 18 mph 1023.7mb 76f 73f
10:50pm 3ft 6s 5s 16 18 mph 1023.4mb 76f 73f
9:50pm 3.5ft 6s 5s 16 18 mph 1022.9mb 76f 72f
8:50pm 3.5ft 6s 4s 16 18 mph 1022.2mb 76f 71f
7:50pm 4ft 6s 5s 16 20 mph 1021.6mb 76f 71f
6:50pm 4.5ft 6s 5s 18 20 mph 1021.1mb 76f 70f
5:50pm 4.5ft 6s 5s 18 20 mph 1021mb 76f 70f
4:50pm 4.5ft 6s 5s 18 20 mph 1021.2mb 76f 70f
3:50pm 5ft 6s 5s 18 22 mph 1020.8mb 76f 70f
2:50pm 5.5ft 6s 5s 20 25 mph 1020.8mb 76f 70f
1:50pm 5.5ft 6s 5s 22 27 mph 1020.2mb 76f 69f
12:50pm 6ft 7s 5s 22 29 mph 1020.1mb 76f 69f
11:50am 6ft 6s 5s 22 27 mph 1019.6mb 76f 69f
10:50am 6ft 6s 5s 25 31 mph 1018.9mb 76f 69f
9:50am 6ft 6s 5s 25 29 mph 1018.6mb 76f 69f
8:50am 6ft 6s 5s 27 31 mph 1017.9mb 76f 69f
7:50am 7ft 5s 5s 27 31 mph 1016.7mb 76f 70f
6:50am 5ft 5s 4s 27 31 mph 1015.7mb 76f 72f
5:50am 4.5ft 4s 4s 27 31 mph 1014.3mb 76f 72f
4:50am 3ft 5s 4s 25 29 mph 1013.5mb 76f 74f
3:50am 2.5ft 5s 4s 20 25 mph 1013mb 76f 75f
2:50am 2.5ft 5s 4s 11 13 mph 1012.5mb 76f 77f
1:50am 3ft 5s 4s 13 16 mph 1012.2mb 76f 79f
12:50am 3ft 5s 4s 13 16 mph 1012.2mb 76f 78f
Thu 05/21 11:50pm 3.5ft 5s 4s 16 18 mph 1011.6mb 76f 77f
10:50pm 3.5ft 5s 4s 16 20 mph 1011.4mb 76f 78f
9:50pm 3.5ft 5s 4s 16 18 mph 1010.9mb 76f 78f
8:50pm 3.5ft 5s 4s 16 20 mph 1010.3mb 76f 78f
7:50pm 3.5ft 5s 4s 16 20 mph 1009.6mb 76f 78f
6:50pm 4ft 5s 4s 18 20 mph 1008.9mb 76f 78f
5:50pm 4ft 5s 4s 20 25 mph 1008.7mb 76f 78f
4:50pm 4ft 5s 4s 22 25 mph 1008.7mb 76f 78f
3:50pm 3.5ft 5s 4s 20 25 mph 1009.1mb 76f 77f
2:50pm 3.5ft 5s 4s 20 22 mph 1009.6mb 76f 76f
1:50pm 3.5ft 5s 4s 18 20 mph 1009.8mb 76f 76f
12:50pm 3.5ft 5s 4s 18 22 mph 1010.3mb 76f 76f
11:50am 3.5ft 5s 4s 16 20 mph 1010.9mb 76f 77f
10:50am 3.5ft 4s 4s 18 20 mph 1010.8mb 76f 77f
9:50am 3.5ft 5s 4s 16 18 mph 1010.9mb 76f 76f
8:50am 3.5ft 5s 4s 18 22 mph 1010.8mb 76f 77f